ESOE

Örebro Airport

Örebro, Sweden
METAR ESOE 092050Z AUTO 24005KT 210V270 9999 NCD 00/M02 Q0987
Observed Flight Rules
Dec-9 @ 20:50 UTC (49 minutes ago) Visual Flight Rules
Wind Visibility Clouds
240° at 5 knots 10,000+ meters
  • Clear skies
Temperatures Readings
Current 0°C / 32°F
Dewpoint -2°C / 28°F
Humidity 87%
Altimeter 29.14" Hg
Pressure 987 hPa
Elevation 57
METAR ESOE 092050Z AUTO 24005KT 210V270 9999 NCD 00/M02 Q0987
Observed Flight Rules
Dec-9 @ 20:50 UTC
(49 minutes ago)
VFR
Wind Visibility
240° at 5 knots 10,000+ meters
Clouds
  • Clear skies
Temperature Dewpoint
0°C / 32°F -2°C / 28°F
Humidity Altimeter Pressure
87% 29.14" Hg 987 hPa